Time;durP1;ratioP1;P1;durP2;ratioP2;P2;SDS_P1;SDS_P2;PMS_P1;PMS_P2;Temp;Humidity;BMP_temperature;BMP_pressure;BME280_temperature;BME280_humidity;BME280_pressure;Samples;Min_cycle;Max_cycle;Signal;HPM_P1;HPM_P2
2024/04/26 00:01:25;;;;;;;4.87;3.87;;;;;;;2.96;100.00;97154.75;5455297;26;20575;-80
2024/04/26 00:03:54;;;;;;;7.47;4.03;;;;;;;3.02;100.00;97141.34;5455508;26;20369;-80
2024/04/26 00:06:22;;;;;;;7.67;4.20;;;;;;;3.09;100.00;97147.06;5455922;26;20312;-80
2024/04/26 00:08:50;;;;;;;6.57;4.27;;;;;;;3.15;100.00;97144.13;5455496;26;20270;-80
2024/04/26 00:11:15;;;;;;;8.10;4.23;;;;;;;3.24;100.00;97136.59;5454630;26;20243;-80
2024/04/26 00:13:46;;;;;;;5.37;4.13;;;;;;;3.31;100.00;97132.72;5455496;26;20228;-80
2024/04/26 00:16:14;;;;;;;6.50;4.07;;;;;;;3.32;100.00;97139.66;5455206;26;21140;-79
2024/04/26 00:18:42;;;;;;;6.07;4.27;;;;;;;3.38;100.00;97139.31;5454565;26;20304;-80
2024/04/26 00:21:10;;;;;;;5.50;4.13;;;;;;;3.51;100.00;97129.00;5453802;26;20287;-80
2024/04/26 00:23:40;;;;;;;6.70;4.73;;;;;;;3.61;100.00;97130.97;5454200;26;20282;-80
2024/04/26 00:26:10;;;;;;;7.63;4.63;;;;;;;3.69;100.00;97127.94;5454535;26;20225;-80
2024/04/26 00:28:38;;;;;;;7.63;5.17;;;;;;;3.72;100.00;97125.97;5454133;26;20272;-80
2024/04/26 00:31:09;;;;;;;8.00;4.70;;;;;;;3.81;100.00;97120.25;5452791;25;20334;-80
2024/04/26 00:33:39;;;;;;;5.40;4.47;;;;;;;3.90;100.00;97116.22;5453519;26;20231;-79
2024/04/26 00:36:07;;;;;;;6.67;4.47;;;;;;;3.90;100.00;97109.22;5453226;26;20224;-79
2024/04/26 00:38:35;;;;;;;7.73;4.83;;;;;;;3.91;100.00;97107.47;5453467;26;20372;-79
2024/04/26 00:41:01;;;;;;;6.33;4.97;;;;;;;3.93;100.00;97114.28;5452409;26;20267;-79
2024/04/26 00:43:29;;;;;;;7.70;4.73;;;;;;;3.93;100.00;97122.13;5453746;26;20241;-79
2024/04/26 00:45:57;;;;;;;6.80;4.83;;;;;;;3.90;100.00;97106.63;5454129;26;20229;-81
2024/04/26 00:48:29;;;;;;;6.73;4.57;;;;;;;3.85;100.00;97113.88;5453013;26;20301;-79
2024/04/26 00:50:57;;;;;;;8.07;4.73;;;;;;;3.81;100.00;97122.84;5453169;26;20343;-79
2024/04/26 00:53:25;;;;;;;7.00;5.03;;;;;;;3.74;100.00;97110.22;5452402;26;20224;-79
2024/04/26 00:55:54;;;;;;;7.47;5.00;;;;;;;3.59;100.00;97116.31;5451838;26;20284;-79
2024/04/26 00:58:22;;;;;;;9.47;5.73;;;;;;;3.46;100.00;97121.44;5452053;26;20312;-79
2024/04/26 01:00:51;;;;;;;8.27;5.10;;;;;;;3.36;100.00;97125.47;5449240;26;20671;-79
2024/04/26 01:03:19;;;;;;;8.67;5.10;;;;;;;3.25;100.00;97127.03;5451210;26;20229;-79
2024/04/26 01:05:50;;;;;;;11.40;5.90;;;;;;;3.14;100.00;97127.63;5450292;26;20280;-79
2024/04/26 01:08:18;;;;;;;8.13;5.33;;;;;;;3.13;100.00;97118.09;5450355;26;20632;-79
2024/04/26 01:10:48;;;;;;;10.83;5.40;;;;;;;2.98;100.00;97120.72;5450114;26;20735;-79
2024/04/26 01:13:16;;;;;;;8.80;5.00;;;;;;;2.83;100.00;97125.03;5450923;26;20683;-78
2024/04/26 01:15:44;;;;;;;9.67;5.40;;;;;;;2.78;100.00;97123.56;5450671;26;20714;-78
2024/04/26 01:18:12;;;;;;;8.63;5.23;;;;;;;2.66;100.00;97125.09;5450014;26;20359;-79
2024/04/26 01:20:40;;;;;;;6.20;4.67;;;;;;;2.58;100.00;97123.81;5448855;26;20738;-79
2024/04/26 01:23:11;;;;;;;8.80;4.60;;;;;;;2.50;100.00;97121.63;5450565;26;20274;-79
2024/04/26 01:25:42;;;;;;;7.27;5.43;;;;;;;2.48;100.00;97120.00;5448445;26;20272;-79
2024/04/26 01:28:10;;;;;;;7.53;4.90;;;;;;;2.44;100.00;97121.94;5451139;26;20546;-79
2024/04/26 01:30:38;;;;;;;8.20;5.10;;;;;;;2.39;100.00;97117.91;5448985;26;20359;-79
2024/04/26 01:33:07;;;;;;;7.97;5.50;;;;;;;2.35;100.00;97117.22;5450446;26;20236;-79
2024/04/26 01:35:35;;;;;;;6.63;4.73;;;;;;;2.32;100.00;97124.38;5450269;26;20271;-78
2024/04/26 01:38:03;;;;;;;6.57;4.70;;;;;;;2.29;100.00;97129.72;5450741;26;20260;-78
2024/04/26 01:40:31;;;;;;;6.07;4.33;;;;;;;2.31;100.00;97126.13;5449321;26;20719;-79
2024/04/26 01:43:02;;;;;;;6.87;4.47;;;;;;;2.31;100.00;97131.34;5451168;26;20330;-78
2024/04/26 01:45:30;;;;;;;5.97;4.40;;;;;;;2.35;100.00;97122.44;5450814;26;20315;-78
2024/04/26 01:47:58;;;;;;;6.27;4.30;;;;;;;2.36;100.00;97128.47;5451736;26;20836;-79
2024/04/26 01:50:26;;;;;;;7.77;4.60;;;;;;;2.36;100.00;97131.94;5449326;26;20296;-78
2024/04/26 01:52:54;;;;;;;5.40;3.87;;;;;;;2.42;100.00;97144.66;5450662;26;20334;-79
2024/04/26 01:55:23;;;;;;;6.67;3.87;;;;;;;2.50;100.00;97147.69;5450751;26;20287;-78
2024/04/26 01:57:50;;;;;;;6.37;4.57;;;;;;;2.56;100.00;97131.72;5450960;26;20314;-78
2024/04/26 02:00:21;;;;;;;6.37;4.50;;;;;;;2.62;100.00;97136.59;5449597;26;20303;-78
2024/04/26 02:02:46;;;;;;;6.57;4.80;;;;;;;2.72;100.00;97143.03;5449930;25;20364;-78
2024/04/26 02:05:14;;;;;;;7.10;4.03;;;;;;;2.79;100.00;97146.97;5450970;26;20229;-81
2024/04/26 02:07:40;;;;;;;6.53;5.00;;;;;;;2.90;100.00;97136.81;5451102;26;20292;-78
2024/04/26 02:10:09;;;;;;;7.90;4.87;;;;;;;2.96;100.00;97136.47;5450117;26;20332;-79
2024/04/26 02:12:34;;;;;;;6.73;4.30;;;;;;;3.07;100.00;97135.88;5450796;26;20358;-79
2024/04/26 02:15:02;;;;;;;5.77;4.07;;;;;;;3.14;100.00;97132.84;5451202;26;20679;-78
2024/04/26 02:17:31;;;;;;;6.40;4.60;;;;;;;3.22;100.00;97128.03;5451473;26;20282;-79
2024/04/26 02:19:59;;;;;;;7.40;4.60;;;;;;;3.35;100.00;97122.94;5454977;26;20252;-78
2024/04/26 02:22:27;;;;;;;8.90;4.97;;;;;;;3.43;100.00;97105.91;5453418;26;20322;-78
2024/04/26 02:24:55;;;;;;;5.33;4.40;;;;;;;3.53;100.00;97107.09;5455308;26;20259;-80
2024/04/26 02:27:23;;;;;;;9.17;4.33;;;;;;;3.57;100.00;97103.38;5465949;26;20288;-79
2024/04/26 02:29:52;;;;;;;6.20;4.53;;;;;;;3.61;100.00;97104.84;5465472;26;20276;-79
2024/04/26 02:32:20;;;;;;;6.43;4.47;;;;;;;3.63;100.00;97097.78;5460158;26;20827;-80
2024/04/26 02:34:50;;;;;;;9.77;4.70;;;;;;;3.73;100.00;97082.41;5459863;26;20228;-80
2024/04/26 02:37:19;;;;;;;5.10;3.83;;;;;;;3.71;100.00;97079.03;5459574;26;20271;-80
2024/04/26 02:39:47;;;;;;;6.97;4.40;;;;;;;3.64;100.00;97088.16;5459346;26;20295;-79
2024/04/26 02:42:15;;;;;;;7.70;4.70;;;;;;;3.53;100.00;97107.09;5458513;26;20267;-79
2024/04/26 02:44:43;;;;;;;8.63;4.53;;;;;;;3.38;100.00;97104.50;5458149;26;20266;-79
2024/04/26 02:47:12;;;;;;;7.17;4.13;;;;;;;3.24;100.00;97099.22;5457909;26;20803;-79
2024/04/26 02:49:40;;;;;;;4.40;3.83;;;;;;;3.07;100.00;97097.56;5457195;26;20301;-79
2024/04/26 02:52:11;;;;;;;6.70;4.10;;;;;;;2.86;100.00;97097.91;5456662;26;20316;-79
2024/04/26 02:54:39;;;;;;;6.47;4.67;;;;;;;2.73;100.00;97097.75;5457366;26;20278;-78
2024/04/26 02:57:07;;;;;;;6.57;4.13;;;;;;;2.62;100.00;97097.50;5452621;26;20279;-81
2024/04/26 02:59:35;;;;;;;7.77;4.30;;;;;;;2.58;100.00;97103.78;5451620;26;20344;-80
2024/04/26 03:02:03;;;;;;;7.87;4.77;;;;;;;2.51;100.00;97093.78;5454960;26;20672;-79
2024/04/26 03:04:31;;;;;;;6.73;4.47;;;;;;;2.42;100.00;97089.03;5453840;26;20351;-79
2024/04/26 03:06:59;;;;;;;6.63;4.33;;;;;;;2.31;100.00;97094.84;5453475;26;20283;-79
2024/04/26 03:09:30;;;;;;;6.50;4.50;;;;;;;2.24;100.00;97096.09;5453129;26;20325;-79
2024/04/26 03:11:59;;;;;;;8.57;4.93;;;;;;;2.17;100.00;97097.34;5452840;26;20256;-79
2024/04/26 03:14:28;;;;;;;6.53;4.47;;;;;;;2.14;100.00;97091.47;5453774;25;20275;-79
2024/04/26 03:16:56;;;;;;;5.53;4.17;;;;;;;2.08;100.00;97091.78;5452930;26;20223;-79
2024/04/26 03:19:25;;;;;;;5.57;3.93;;;;;;;2.09;100.00;97094.28;5453322;26;20240;-79
2024/04/26 03:21:53;;;;;;;6.10;3.90;;;;;;;2.09;100.00;97083.03;5451603;26;20233;-79
2024/04/26 03:24:21;;;;;;;6.90;3.90;;;;;;;2.04;100.00;97088.50;5452454;26;20239;-79
2024/04/26 03:26:51;;;;;;;5.53;4.00;;;;;;;1.97;100.00;97079.28;5451675;26;20275;-79
2024/04/26 03:29:20;;;;;;;5.87;3.97;;;;;;;1.97;100.00;97075.84;5450831;26;20346;-79
2024/04/26 03:31:48;;;;;;;6.10;4.33;;;;;;;2.00;100.00;97079.13;5450227;26;20915;-79
2024/04/26 03:34:16;;;;;;;4.63;3.70;;;;;;;1.98;100.00;97081.00;5450263;26;20291;-79
2024/04/26 03:36:44;;;;;;;7.33;4.17;;;;;;;1.95;100.00;97081.13;5450292;26;20291;-79
2024/04/26 03:39:12;;;;;;;7.93;4.20;;;;;;;1.91;100.00;97083.97;5450228;26;20294;-79
2024/04/26 03:41:40;;;;;;;7.60;4.30;;;;;;;1.93;100.00;97088.19;5449229;26;20305;-79
2024/04/26 03:44:11;;;;;;;5.30;3.60;;;;;;;1.92;100.00;97083.91;5450686;26;20316;-79
2024/04/26 03:46:43;;;;;;;6.40;4.13;;;;;;;1.95;100.00;97077.66;5450625;26;20332;-79
2024/04/26 03:49:11;;;;;;;7.57;4.60;;;;;;;1.96;100.00;97072.38;5451051;26;20230;-80
2024/04/26 03:51:39;;;;;;;6.67;4.00;;;;;;;1.99;100.00;97079.22;5449621;26;20225;-79
2024/04/26 03:54:08;;;;;;;7.43;4.70;;;;;;;2.06;100.00;97089.25;5450979;26;20231;-79
2024/04/26 03:56:36;;;;;;;5.97;4.63;;;;;;;2.13;100.00;97085.38;5451073;26;20305;-79
2024/04/26 03:59:04;;;;;;;5.03;4.20;;;;;;;2.20;100.00;97075.50;5450080;26;20322;-80
2024/04/26 04:01:35;;;;;;;7.50;4.97;;;;;;;2.30;100.00;97072.31;5448493;26;20294;-79
2024/04/26 04:04:03;;;;;;;5.73;4.03;;;;;;;2.38;100.00;97064.09;5450101;26;20253;-79
2024/04/26 04:06:31;;;;;;;7.13;4.17;;;;;;;2.38;100.00;97059.69;5449069;26;20271;-79
2024/04/26 04:08:59;;;;;;;6.50;3.93;;;;;;;2.42;100.00;97066.44;5448906;26;20278;-79
2024/04/26 04:11:27;;;;;;;7.77;4.83;;;;;;;2.47;100.00;97069.66;5447977;26;20243;-80
2024/04/26 04:13:55;;;;;;;6.93;4.33;;;;;;;2.60;100.00;97059.38;5450596;26;20231;-79
2024/04/26 04:16:24;;;;;;;7.47;4.37;;;;;;;2.64;100.00;97066.94;5451532;26;20236;-79
2024/04/26 04:18:54;;;;;;;5.63;4.47;;;;;;;2.68;100.00;97068.47;5450331;26;20304;-80
2024/04/26 04:21:22;;;;;;;5.10;4.27;;;;;;;2.78;100.00;97067.03;5459476;26;20252;-80
2024/04/26 04:23:51;;;;;;;5.20;4.10;;;;;;;2.93;100.00;97066.16;5465527;26;20280;-80
2024/04/26 04:26:19;;;;;;;6.40;4.40;;;;;;;3.08;100.00;97065.31;5464184;26;20232;-80
2024/04/26 04:28:47;;;;;;;4.97;4.20;;;;;;;3.23;100.00;97056.59;5457807;26;20231;-80
2024/04/26 04:31:15;;;;;;;6.70;4.17;;;;;;;3.31;100.00;97056.19;5456291;26;20243;-80
2024/04/26 04:33:43;;;;;;;5.73;3.87;;;;;;;3.37;100.00;97053.22;5456539;26;20271;-80
2024/04/26 04:36:14;;;;;;;5.83;4.10;;;;;;;3.46;100.00;97056.13;5456163;26;20300;-80
2024/04/26 04:38:42;;;;;;;5.43;4.23;;;;;;;3.53;100.00;97044.38;5455158;26;20240;-80
2024/04/26 04:41:11;;;;;;;6.13;3.93;;;;;;;3.65;100.00;97054.13;5453015;26;20303;-80
2024/04/26 04:43:39;;;;;;;5.47;4.10;;;;;;;3.73;100.00;97049.28;5455270;26;20705;-80
2024/04/26 04:46:07;;;;;;;4.37;3.70;;;;;;;3.82;100.00;97056.59;5454667;26;20286;-80
2024/04/26 04:48:36;;;;;;;5.70;4.03;;;;;;;3.85;100.00;97048.53;5454583;26;20223;-80
2024/04/26 04:51:04;;;;;;;7.13;3.93;;;;;;;3.94;100.00;97044.53;5453066;26;20253;-80
2024/04/26 04:53:35;;;;;;;7.63;4.80;;;;;;;3.93;100.00;97043.72;5454118;26;20321;-80
2024/04/26 04:56:03;;;;;;;6.03;4.43;;;;;;;4.06;100.00;97049.03;5452720;26;20352;-79
2024/04/26 04:58:31;;;;;;;7.47;4.73;;;;;;;4.04;100.00;97046.50;5452581;26;20224;-80
2024/04/26 05:00:59;;;;;;;6.63;4.00;;;;;;;4.03;100.00;97050.06;5451915;25;20353;-79
2024/04/26 05:03:27;;;;;;;6.23;4.00;;;;;;;4.02;100.00;97048.38;5452550;26;20229;-79
2024/04/26 05:05:55;;;;;;;6.80;4.20;;;;;;;4.06;100.00;97046.41;5450843;26;20288;-79
2024/04/26 05:08:24;;;;;;;5.87;4.33;;;;;;;4.12;100.00;97039.06;5450054;26;20236;-78
2024/04/26 05:10:55;;;;;;;7.23;4.80;;;;;;;4.19;100.00;97044.72;5449129;26;20333;-80
2024/04/26 05:13:23;;;;;;;6.80;4.00;;;;;;;4.27;100.00;97039.91;5450342;26;20228;-78
2024/04/26 05:15:52;;;;;;;5.33;4.27;;;;;;;4.31;100.00;97039.59;5449829;26;20323;-80
2024/04/26 05:18:20;;;;;;;6.87;4.03;;;;;;;4.37;100.00;97038.38;5449517;26;20733;-77
2024/04/26 05:20:49;;;;;;;5.40;4.27;;;;;;;4.42;100.00;97031.94;5439126;26;20377;-77
2024/04/26 05:23:17;;;;;;;6.00;4.00;;;;;;;4.52;100.00;97034.81;5437903;26;20229;-77
2024/04/26 05:25:45;;;;;;;4.50;3.93;;;;;;;4.57;100.00;97036.19;5439626;26;20271;-77
2024/04/26 05:28:16;;;;;;;4.60;3.73;;;;;;;4.60;100.00;97040.41;5439810;26;20817;-77
2024/04/26 05:30:44;;;;;;;5.47;3.77;;;;;;;4.61;100.00;97042.94;5437734;26;20312;-77
2024/04/26 05:33:12;;;;;;;6.33;4.00;;;;;;;4.60;100.00;97046.50;5442453;26;20271;-80
2024/04/26 05:35:42;;;;;;;4.50;3.53;;;;;;;4.61;100.00;97056.00;5448163;26;20283;-82
2024/04/26 05:38:10;;;;;;;5.83;3.97;;;;;;;4.61;100.00;97056.00;5448388;26;20754;-83
2024/04/26 05:40:39;;;;;;;5.93;3.90;;;;;;;4.62;100.00;97060.31;5446213;26;20348;-80
2024/04/26 05:43:07;;;;;;;5.30;3.73;;;;;;;4.63;100.00;97045.44;5447030;26;20316;-81
2024/04/26 05:45:39;;;;;;;6.97;3.80;;;;;;;4.64;100.00;97052.38;5445743;26;20325;-80
2024/04/26 05:48:08;;;;;;;5.90;3.50;;;;;;;4.66;100.00;97047.88;5448178;26;20229;-81
2024/04/26 05:50:36;;;;;;;4.77;3.47;;;;;;;4.71;100.00;97048.41;5446569;26;20234;-81
2024/04/26 05:53:04;;;;;;;5.43;3.77;;;;;;;4.76;100.00;97055.03;5448060;26;20349;-81
2024/04/26 05:55:32;;;;;;;6.90;3.90;;;;;;;4.81;100.00;97045.13;5447853;26;20232;-81
2024/04/26 05:58:01;;;;;;;5.77;4.00;;;;;;;4.85;100.00;97051.84;5444277;26;20802;-81
2024/04/26 06:00:30;;;;;;;5.30;4.10;;;;;;;4.86;100.00;97048.28;5423530;26;20248;-81
2024/04/26 06:03:00;;;;;;;4.87;3.60;;;;;;;4.95;100.00;97047.69;5429629;26;20260;-81
2024/04/26 06:05:29;;;;;;;4.40;3.80;;;;;;;5.03;100.00;97042.81;5448534;26;20237;-81
2024/04/26 06:07:57;;;;;;;5.07;3.70;;;;;;;5.13;100.00;97050.91;5449593;26;20263;-81
2024/04/26 06:10:26;;;;;;;4.93;3.70;;;;;;;5.29;100.00;97052.44;5448286;26;20232;-81
2024/04/26 06:12:54;;;;;;;6.73;4.00;;;;;;;5.32;100.00;97046.97;5448993;26;20305;-81
2024/04/26 06:15:24;;;;;;;6.20;3.60;;;;;;;5.38;100.00;97035.28;5448745;26;20723;-81
2024/04/26 06:17:52;;;;;;;5.43;3.77;;;;;;;5.44;100.00;97040.94;5449597;26;20271;-81
2024/04/26 06:20:25;;;;;;;6.17;3.83;;;;;;;5.50;100.00;97040.53;5448541;26;20495;-81
2024/04/26 06:22:53;;;;;;;4.63;3.53;;;;;;;5.61;100.00;97032.81;5453758;26;20312;-79
2024/04/26 06:25:21;;;;;;;5.60;3.67;;;;;;;5.71;100.00;97031.25;5461256;26;20228;-81
2024/04/26 06:27:50;;;;;;;5.47;3.53;;;;;;;5.85;100.00;97031.19;5460880;26;20256;-81
2024/04/26 06:30:18;;;;;;;5.07;3.20;;;;;;;5.94;99.52;97035.81;5455164;26;20288;-81
2024/04/26 06:32:46;;;;;;;7.23;3.67;;;;;;;6.03;99.20;97045.66;5453105;26;20665;-81
2024/04/26 06:35:14;;;;;;;6.20;4.17;;;;;;;6.12;98.43;97042.41;5452970;26;20229;-82
2024/04/26 06:37:45;;;;;;;6.57;3.97;;;;;;;6.20;98.05;97041.88;5449448;26;20347;-81
2024/04/26 06:40:13;;;;;;;5.17;3.70;;;;;;;6.27;97.74;97049.22;5447994;26;20348;-81
2024/04/26 06:42:42;;;;;;;5.90;4.07;;;;;;;6.39;97.62;97056.25;5431813;26;20279;-81
2024/04/26 06:45:10;;;;;;;7.30;4.40;;;;;;;6.53;95.93;97040.38;5413269;26;20356;-81
2024/04/26 06:47:38;;;;;;;8.00;4.53;;;;;;;6.64;95.40;97040.47;5441048;26;20974;-81
2024/04/26 06:50:07;;;;;;;8.17;4.10;;;;;;;6.74;94.63;97033.63;5445924;26;20281;-81
2024/04/26 06:52:36;;;;;;;8.80;4.17;;;;;;;6.86;94.38;97032.75;5446038;26;20236;-81
2024/04/26 06:55:07;;;;;;;5.30;4.00;;;;;;;7.05;92.19;97025.22;5444068;26;20319;-81
2024/04/26 06:57:35;;;;;;;5.70;4.00;;;;;;;7.22;90.69;97015.13;5445669;26;20341;-81
2024/04/26 07:00:03;;;;;;;4.03;3.40;;;;;;;7.29;88.89;97010.28;5445198;26;20252;-81
2024/04/26 07:02:32;;;;;;;5.20;3.80;;;;;;;7.39;88.79;97021.75;5447468;26;20263;-81
2024/04/26 07:05:00;;;;;;;5.60;3.67;;;;;;;7.42;89.02;97027.63;5447573;26;20284;-81
2024/04/26 07:07:28;;;;;;;4.37;3.60;;;;;;;7.47;88.98;97029.94;5452708;26;20316;-82
2024/04/26 07:09:56;;;;;;;5.63;3.47;;;;;;;7.59;87.91;97023.78;5451335;26;20318;-81
2024/04/26 07:12:27;;;;;;;5.37;3.60;;;;;;;7.74;87.14;97023.47;5450459;26;20289;-81
2024/04/26 07:14:55;;;;;;;5.47;3.07;;;;;;;7.95;85.93;97016.56;5450136;26;20789;-81
2024/04/26 07:17:23;;;;;;;5.23;3.27;;;;;;;8.15;85.01;97012.41;5450953;26;20693;-80
2024/04/26 07:19:52;;;;;;;5.43;3.43;;;;;;;8.23;83.45;97005.63;5449323;26;20347;-81
2024/04/26 07:22:20;;;;;;;4.30;3.53;;;;;;;8.24;82.02;96996.78;5449286;26;20342;-81
2024/04/26 07:24:50;;;;;;;5.70;3.47;;;;;;;8.33;82.21;96996.03;5449970;26;20385;-81
2024/04/26 07:27:18;;;;;;;6.97;3.80;;;;;;;8.40;82.68;97006.94;5450340;26;20235;-82
2024/04/26 07:29:49;;;;;;;3.67;3.03;;;;;;;8.48;82.91;97030.88;5449104;26;20297;-81
2024/04/26 07:32:17;;;;;;;5.33;3.10;;;;;;;8.42;81.14;97026.06;5447385;26;20241;-81
2024/04/26 07:34:45;;;;;;;5.23;3.90;;;;;;;8.50;81.79;97034.25;5448679;26;20630;-81
2024/04/26 07:37:13;;;;;;;5.33;3.50;;;;;;;8.51;82.73;97030.66;5448272;26;20275;-81
2024/04/26 07:39:41;;;;;;;6.23;3.60;;;;;;;8.59;83.12;97036.13;5447943;26;20333;-81
2024/04/26 07:42:10;;;;;;;4.27;3.00;;;;;;;8.61;82.97;97028.94;5447348;26;20298;-81
2024/04/26 07:44:38;;;;;;;4.73;3.27;;;;;;;8.69;82.26;97024.75;5446681;26;20328;-81
2024/04/26 07:47:13;;;;;;;3.30;3.00;;;;;;;8.82;82.70;97033.34;5430850;26;20297;-82
2024/04/26 07:49:41;;;;;;;7.70;3.60;;;;;;;9.02;83.16;97037.03;5414147;26;20286;-81
2024/04/26 07:52:09;;;;;;;3.90;3.50;;;;;;;9.19;82.02;97029.44;5409554;26;20688;-81
2024/04/26 07:54:37;;;;;;;4.23;3.33;;;;;;;9.36;81.11;97021.00;5412355;26;20992;-82
2024/04/26 07:57:06;;;;;;;3.87;3.00;;;;;;;9.55;80.38;97022.97;5411498;26;20281;-80
2024/04/26 07:59:34;;;;;;;4.30;3.50;;;;;;;9.68;79.94;97027.09;5414229;26;20738;-81
2024/04/26 08:02:02;;;;;;;4.10;3.17;;;;;;;9.86;78.87;97014.19;5413029;26;20245;-81
2024/04/26 08:04:33;;;;;;;8.63;3.90;;;;;;;10.00;77.23;97008.56;5415150;26;20303;-81
2024/04/26 08:07:04;;;;;;;3.50;3.20;;;;;;;10.16;77.58;97014.25;5415597;26;20298;-81
2024/04/26 08:09:33;;;;;;;4.33;3.53;;;;;;;10.37;77.07;97015.06;5411029;26;20286;-79
2024/04/26 08:12:01;;;;;;;4.47;3.37;;;;;;;10.51;75.63;96998.88;5409162;26;20235;-81
2024/04/26 08:14:29;;;;;;;4.30;3.10;;;;;;;10.77;75.53;96998.25;5412813;26;20241;-82
2024/04/26 08:16:57;;;;;;;3.23;2.53;;;;;;;10.86;74.06;96986.03;5412742;26;20279;-82
2024/04/26 08:19:27;;;;;;;4.80;3.00;;;;;;;11.00;74.13;96993.59;5417876;26;20273;-82
2024/04/26 08:21:58;;;;;;;4.07;2.80;;;;;;;11.13;72.59;96989.72;5424021;26;20341;-81
2024/04/26 08:24:26;;;;;;;5.10;2.50;;;;;;;11.31;72.28;96985.41;5424611;26;20289;-82
2024/04/26 08:26:54;;;;;;;2.80;2.50;;;;;;;11.53;71.83;96986.97;5414163;26;20319;-82
2024/04/26 08:29:22;;;;;;;5.57;2.80;;;;;;;11.68;72.31;96990.91;5413825;26;20241;-82
2024/04/26 08:31:50;;;;;;;3.87;2.80;;;;;;;11.89;71.65;96980.97;5416230;26;20294;-83
2024/04/26 08:34:19;;;;;;;2.87;1.90;;;;;;;11.98;70.70;96977.50;5417190;26;20288;-82
2024/04/26 08:36:47;;;;;;;3.00;1.83;;;;;;;12.29;71.16;96993.00;5430037;26;20285;-82
2024/04/26 08:39:18;;;;;;;1.50;1.40;;;;;;;12.55;70.52;96988.75;5454709;26;20256;-82
2024/04/26 08:41:46;;;;;;;1.73;1.20;;;;;;;12.79;68.54;96965.19;5453116;26;20217;-81
2024/04/26 08:44:15;;;;;;;2.67;1.53;;;;;;;13.04;67.27;96968.97;5453748;26;20237;-81
2024/04/26 08:46:45;;;;;;;1.67;1.30;;;;;;;13.23;65.51;96952.94;5453598;26;20276;-81
2024/04/26 08:49:16;;;;;;;2.00;1.60;;;;;;;13.39;65.26;96961.06;5453376;26;20267;-82
2024/04/26 08:51:45;;;;;;;1.60;1.23;;;;;;;13.64;64.24;96963.75;5453025;26;20277;-82
2024/04/26 08:54:14;;;;;;;1.73;1.30;;;;;;;13.67;63.39;96944.88;5453943;26;20329;-82
2024/04/26 08:56:45;;;;;;;1.93;1.33;;;;;;;13.79;62.02;96935.69;5453793;26;20322;-81
2024/04/26 08:59:16;;;;;;;1.93;1.50;;;;;;;13.92;61.23;96952.06;5451542;26;20303;-82
2024/04/26 09:01:45;;;;;;;2.00;1.40;;;;;;;13.72;60.06;96937.31;5450755;26;20311;-82
2024/04/26 09:04:14;;;;;;;1.13;1.03;;;;;;;13.63;60.29;96946.16;5451576;26;20342;-82
2024/04/26 09:06:42;;;;;;;2.70;1.43;;;;;;;13.54;60.63;96956.88;5452979;26;20446;-82
2024/04/26 09:09:10;;;;;;;3.83;1.47;;;;;;;13.47;60.17;96946.06;5452575;26;20347;-81
2024/04/26 09:11:39;;;;;;;1.93;1.50;;;;;;;13.23;61.20;96963.53;5450903;26;20269;-81
2024/04/26 09:14:10;;;;;;;1.50;1.40;;;;;;;13.27;60.92;96957.78;5452178;26;20229;-82
2024/04/26 09:16:40;;;;;;;2.40;1.33;;;;;;;13.31;61.68;96966.28;5452044;26;20573;-81
2024/04/26 09:19:09;;;;;;;1.90;1.23;;;;;;;13.42;61.31;96968.72;5447267;26;20355;-82
2024/04/26 09:21:38;;;;;;;1.90;1.40;;;;;;;13.59;61.20;96970.53;5447367;26;20245;-82
2024/04/26 09:24:06;;;;;;;2.30;1.40;;;;;;;13.63;60.72;96963.94;5448826;26;20631;-82
2024/04/26 09:26:35;;;;;;;1.80;1.30;;;;;;;13.60;60.70;96966.88;5451144;26;20241;-81
2024/04/26 09:29:03;;;;;;;1.60;1.50;;;;;;;13.80;60.32;96968.38;5450074;26;20222;-81
2024/04/26 09:31:34;;;;;;;3.27;1.50;;;;;;;13.96;60.67;96982.63;5445147;26;20258;-83
2024/04/26 09:34:06;;;;;;;3.33;1.63;;;;;;;13.96;60.69;96979.13;5447822;26;20269;-81
2024/04/26 09:36:36;;;;;;;2.30;1.50;;;;;;;14.03;60.27;96969.56;5443184;26;20757;-82
2024/04/26 09:39:05;;;;;;;2.47;1.40;;;;;;;14.07;60.45;96981.56;5442506;26;20301;-81
2024/04/26 09:41:35;;;;;;;1.73;1.43;;;;;;;14.19;60.20;96983.00;5441927;26;20234;-81
2024/04/26 09:44:04;;;;;;;1.47;1.37;;;;;;;14.46;60.34;96985.47;5442892;26;20351;-84
2024/04/26 09:46:36;;;;;;;2.77;1.87;;;;;;;14.48;59.37;96965.72;5442578;26;20234;-82
2024/04/26 09:49:06;;;;;;;2.63;1.70;;;;;;;14.29;60.07;96992.53;5447044;26;20243;-84
2024/04/26 09:51:39;;;;;;;2.00;1.80;;;;;;;14.32;59.83;96994.03;5443590;26;20237;-85
2024/04/26 09:54:09;;;;;;;1.90;1.60;;;;;;;14.20;59.51;96988.16;5442867;26;20673;-85
2024/04/26 09:56:40;;;;;;;2.03;1.67;;;;;;;14.25;59.76;96995.66;5443228;26;20282;-85
2024/04/26 09:59:09;;;;;;;2.13;1.40;;;;;;;14.27;60.31;96991.88;5445730;26;20230;-83
2024/04/26 10:01:41;;;;;;;1.70;1.60;;;;;;;14.32;60.16;96992.22;5446253;26;20337;-84
2024/04/26 10:04:10;;;;;;;4.10;1.93;;;;;;;14.36;60.67;96998.06;5443730;26;20235;-83
2024/04/26 10:06:39;;;;;;;2.50;1.43;;;;;;;14.38;60.42;97001.41;5444092;26;20234;-83
2024/04/26 10:09:09;;;;;;;1.60;1.47;;;;;;;14.41;60.08;96990.44;5443562;26;20223;-84
2024/04/26 10:11:49;;;;;;;1.97;1.60;;;;;;;14.40;60.33;97000.25;5442537;26;20262;-85
2024/04/26 10:14:27;;;;;;;1.57;1.47;;;;;;;14.31;60.76;96995.84;5446866;26;20223;-85
2024/04/26 10:17:07;;;;;;;1.93;1.57;;;;;;;14.22;60.97;97001.28;5464966;26;20226;-82
2024/04/26 10:19:35;;;;;;;1.80;1.53;;;;;;;14.26;61.21;97003.50;5463295;26;20303;-81
2024/04/26 10:22:04;;;;;;;2.00;1.33;;;;;;;14.33;60.89;97006.34;5454061;26;20342;-80
2024/04/26 10:24:37;;;;;;;2.70;1.40;;;;;;;14.18;60.12;96986.63;5450296;26;20253;-80
2024/04/26 10:27:06;;;;;;;1.50;1.40;;;;;;;14.25;59.91;96993.00;5449495;26;20643;-80
2024/04/26 10:29:34;;;;;;;1.40;1.30;;;;;;;14.30;58.37;96967.63;5448626;26;20325;-80
2024/04/26 10:32:09;;;;;;;1.93;1.50;;;;;;;14.40;58.98;96980.78;5447146;26;20781;-80
2024/04/26 10:34:38;;;;;;;2.27;1.50;;;;;;;14.36;59.03;96982.13;5447973;26;20352;-80
2024/04/26 10:37:13;;;;;;;4.57;1.63;;;;;;;14.38;61.41;97015.53;5448407;26;20235;-80
2024/04/26 10:39:41;;;;;;;2.20;1.60;;;;;;;14.42;60.90;97005.41;5450001;26;20300;-79
2024/04/26 10:42:10;;;;;;;1.80;1.50;;;;;;;14.38;59.89;96990.75;5451070;26;20297;-81
2024/04/26 10:44:39;;;;;;;1.40;1.30;;;;;;;14.31;59.71;96989.72;5451808;26;20227;-80
2024/04/26 10:47:11;;;;;;;1.43;1.33;;;;;;;14.38;59.67;96990.75;5450337;26;20226;-80
2024/04/26 10:49:40;;;;;;;2.13;1.40;;;;;;;14.50;59.46;96992.16;5452374;26;20234;-80
2024/04/26 10:52:09;;;;;;;1.53;1.43;;;;;;;14.74;58.72;96984.31;5450083;26;20320;-79
2024/04/26 10:54:38;;;;;;;1.87;1.30;;;;;;;15.07;57.03;96978.13;5450892;26;20266;-78
2024/04/26 10:57:07;;;;;;;1.60;1.43;;;;;;;15.25;58.00;96987.66;5451708;26;20262;-80
2024/04/26 10:59:36;;;;;;;3.30;1.70;;;;;;;15.49;55.33;96968.28;5431779;26;20800;-80
2024/04/26 11:02:05;;;;;;;3.50;1.40;;;;;;;15.79;54.85;96956.97;5434718;26;20373;-80
2024/04/26 11:04:38;;;;;;;1.67;1.10;;;;;;;15.95;56.27;96980.97;5440305;26;20306;-80
2024/04/26 11:07:14;;;;;;;1.40;1.27;;;;;;;16.02;54.87;96962.31;5445886;26;20248;-79
2024/04/26 11:09:47;;;;;;;1.33;1.23;;;;;;;15.94;53.75;96963.31;5441520;26;20239;-80
2024/04/26 11:12:16;;;;;;;1.50;1.40;;;;;;;15.79;54.77;96979.13;5415959;26;20237;-79
2024/04/26 11:14:44;;;;;;;1.70;1.50;;;;;;;15.73;53.54;96971.81;5443957;26;20338;-83
2024/04/26 11:17:12;;;;;;;1.43;1.13;;;;;;;15.49;54.52;96969.13;5422272;26;20256;-80
2024/04/26 11:19:43;;;;;;;1.60;1.33;;;;;;;15.36;55.98;96986.56;5446482;26;20284;-79
2024/04/26 11:22:11;;;;;;;3.53;1.80;;;;;;;15.28;54.98;96981.19;5444630;26;20297;-80
2024/04/26 11:24:40;;;;;;;3.73;1.37;;;;;;;15.22;54.15;96969.34;5444329;26;20244;-79
2024/04/26 11:27:10;;;;;;;1.13;1.03;;;;;;;15.26;54.68;96983.16;5444679;26;20224;-79
2024/04/26 11:29:38;;;;;;;1.20;1.10;;;;;;;15.25;54.25;96977.03;5446714;26;20255;-79
2024/04/26 11:32:07;;;;;;;2.47;1.10;;;;;;;15.28;54.67;96989.19;5440711;26;20316;-79
2024/04/26 11:34:35;;;;;;;1.30;1.13;;;;;;;15.46;54.87;96992.59;5444088;26;20236;-81
2024/04/26 11:37:07;;;;;;;1.67;1.30;;;;;;;15.60;53.12;96970.63;5441772;26;20768;-81
2024/04/26 11:39:36;;;;;;;2.43;1.20;;;;;;;15.69;53.10;96972.28;5431836;26;20861;-79
2024/04/26 11:42:04;;;;;;;1.23;0.93;;;;;;;15.78;53.22;96979.28;5422707;26;20250;-79